Time;durP1;ratioP1;P1;durP2;ratioP2;P2;SDS_P1;SDS_P2;PMS_P1;PMS_P2;Temp;Humidity;BMP_temperature;BMP_pressure;BME280_temperature;BME280_humidity;BME280_pressure;Samples;Min_cycle;Max_cycle;Signal;HPM_P1;HPM_P2
2024/01/30 00:01:16;;;;;;;9.2;7.4;;;;;;;2.68;75.6123;950.9677;;;;
2024/01/30 00:03:41;;;;;;;9.1;6.6;;;;;;;2.46;76.58203;950.9874;;;;
2024/01/30 00:06:06;;;;;;;6.8;5.6;;;;;;;2.44;76.90234;950.8924;;;;
2024/01/30 00:08:31;;;;;;;7.1;5.2;;;;;;;2.56;76.84668;950.9397;;;;
2024/01/30 00:10:56;;;;;;;8;4.9;;;;;;;2.55;76.83496;950.9702;;;;
2024/01/30 00:13:22;;;;;;;8.1;5.4;;;;;;;2.48;76.85449;950.9836;;;;
2024/01/30 00:15:46;;;;;;;8.6;5.6;;;;;;;2.51;76.73633;950.965;;;;
2024/01/30 00:18:11;;;;;;;8.6;5;;;;;;;2.65;76.37012;951.0291;;;;
2024/01/30 00:20:36;;;;;;;8.6;4.4;;;;;;;2.52;76.63672;951.0237;;;;
2024/01/30 00:23:02;;;;;;;9.5;5.2;;;;;;;2.49;76.67676;951.0377;;;;
2024/01/30 00:25:27;;;;;;;9.5;5.4;;;;;;;2.52;76.33594;951.0344;;;;
2024/01/30 00:27:52;;;;;;;8.3;5.3;;;;;;;2.72;75.72168;951.0134;;;;
2024/01/30 00:30:17;;;;;;;5.8;3.9;;;;;;;2.55;76.26074;950.9925;;;;
2024/01/30 00:32:42;;;;;;;6.5;4.1;;;;;;;2.44;76.61133;951.0144;;;;
2024/01/30 00:35:09;;;;;;;5.2;3.7;;;;;;;2.35;76.95313;951.0344;;;;
2024/01/30 00:37:33;;;;;;;5;3.5;;;;;;;2.45;76.96191;950.9946;;;;
2024/01/30 00:39:58;;;;;;;6;3.6;;;;;;;2.39;77.06055;951.0416;;;;
2024/01/30 00:42:23;;;;;;;6.9;5.2;;;;;;;2.29;77.2793;950.9995;;;;
2024/01/30 00:44:48;;;;;;;6;4.1;;;;;;;2.35;77.49219;951.0111;;;;
2024/01/30 00:47:13;;;;;;;7.4;3.8;;;;;;;2.29;77.51465;950.9829;;;;
2024/01/30 00:49:38;;;;;;;5.5;4;;;;;;;2.41;77.30078;951.0535;;;;
2024/01/30 00:52:03;;;;;;;4.4;3.4;;;;;;;2.36;77.5166;951.0998;;;;
2024/01/30 00:54:28;;;;;;;6;3.7;;;;;;;2.48;77.33789;951.0263;;;;
2024/01/30 00:56:54;;;;;;;5.6;3.4;;;;;;;2.49;77.08008;951.1392;;;;
2024/01/30 00:59:18;;;;;;;6.5;3.7;;;;;;;2.51;77.21777;951.1382;;;;
2024/01/30 01:01:44;;;;;;;6.3;4;;;;;;;2.31;77.30469;951.0391;;;;
2024/01/30 01:04:09;;;;;;;5.3;3.8;;;;;;;2.29;77.28125;951.0815;;;;
2024/01/30 01:06:34;;;;;;;5.5;3.6;;;;;;;2.42;76.95605;951.0418;;;;
2024/01/30 01:08:59;;;;;;;6.8;3.6;;;;;;;2.47;76.44922;951.0455;;;;
2024/01/30 01:11:24;;;;;;;6.3;4;;;;;;;2.46;76.43652;951.1031;;;;
2024/01/30 01:13:49;;;;;;;4.8;3.2;;;;;;;2.37;76.4873;951.0988;;;;
2024/01/30 01:16:15;;;;;;;4.2;2.9;;;;;;;2.31;76.94629;951.0847;;;;
2024/01/30 01:18:40;;;;;;;3.9;2.4;;;;;;;2.25;76.95898;951.0247;;;;
2024/01/30 01:21:05;;;;;;;3.6;2.4;;;;;;;2.2;76.81641;951.0572;;;;
2024/01/30 01:23:30;;;;;;;4.1;2.5;;;;;;;2.29;75.81348;951.0722;;;;
2024/01/30 01:25:55;;;;;;;4.4;2.2;;;;;;;2.33;75.70801;951.1696;;;;
2024/01/30 01:28:20;;;;;;;2.9;1.9;;;;;;;2.42;75.09668;951.1462;;;;
2024/01/30 01:30:46;;;;;;;3.1;2.1;;;;;;;2.35;75.88867;951.0564;;;;
2024/01/30 01:33:13;;;;;;;4.3;2.2;;;;;;;2.33;76.04395;951.1451;;;;
2024/01/30 01:35:36;;;;;;;3.6;2.4;;;;;;;2.38;76.1416;951.0853;;;;
2024/01/30 01:38:02;;;;;;;3.6;2.5;;;;;;;2.43;76.02832;951.1398;;;;
2024/01/30 01:40:26;;;;;;;4.4;2.8;;;;;;;2.51;75.60547;951.1359;;;;
2024/01/30 01:42:51;;;;;;;3.7;2.6;;;;;;;2.37;76.02832;951.2032;;;;
2024/01/30 01:45:16;;;;;;;3.8;2.6;;;;;;;2.27;76.51465;951.1923;;;;
2024/01/30 01:47:41;;;;;;;4.4;2.6;;;;;;;2.28;76.60547;951.2051;;;;
2024/01/30 01:50:06;;;;;;;3.8;2.7;;;;;;;2.33;76.50195;951.1934;;;;
2024/01/30 01:52:32;;;;;;;5.3;3;;;;;;;2.36;76.42773;951.2048;;;;
2024/01/30 01:54:57;;;;;;;3.8;2.5;;;;;;;2.4;76.19141;951.14;;;;
2024/01/30 01:57:22;;;;;;;3.7;2.4;;;;;;;2.35;76.5625;951.1447;;;;
2024/01/30 01:59:47;;;;;;;3.3;2.4;;;;;;;2.21;77.12012;951.1473;;;;
2024/01/30 02:02:12;;;;;;;3.9;2.5;;;;;;;2.1;77.43457;951.1497;;;;
2024/01/30 02:04:37;;;;;;;3.3;2.3;;;;;;;2.29;76.84277;951.1331;;;;
2024/01/30 02:07:03;;;;;;;3.4;2.3;;;;;;;2.21;77.28809;951.16;;;;
2024/01/30 02:09:28;;;;;;;3.1;2;;;;;;;2.12;77.5498;951.0516;;;;
2024/01/30 02:11:53;;;;;;;3.1;2;;;;;;;2.11;77.50586;951.1527;;;;
2024/01/30 02:14:18;;;;;;;2.9;2.1;;;;;;;2.12;77.47168;951.0893;;;;
2024/01/30 02:16:43;;;;;;;2.4;1.8;;;;;;;2.07;77.71973;951.1395;;;;
2024/01/30 02:19:08;;;;;;;2.7;1.9;;;;;;;2.11;77.33594;951.1361;;;;
2024/01/30 02:21:33;;;;;;;3.1;1.8;;;;;;;2.13;77.25;951.0902;;;;
2024/01/30 02:23:59;;;;;;;3.9;2.2;;;;;;;2.1;77.33398;951.137;;;;
2024/01/30 02:26:24;;;;;;;2.6;2;;;;;;;2.04;77.83789;951.1283;;;;
2024/01/30 02:28:49;;;;;;;4.1;1.9;;;;;;;1.95;78.13477;951.1566;;;;
2024/01/30 02:31:14;;;;;;;3.1;1.9;;;;;;;1.88;78.05371;951.1638;;;;
2024/01/30 02:33:39;;;;;;;3.6;2.5;;;;;;;1.93;78.24316;951.1663;;;;
2024/01/30 02:36:04;;;;;;;2.9;2.3;;;;;;;1.92;78.30859;951.1635;;;;
2024/01/30 02:38:29;;;;;;;3.5;2.2;;;;;;;1.98;77.84863;951.1644;;;;
2024/01/30 02:40:54;;;;;;;3.3;2.3;;;;;;;1.86;78.28711;951.0801;;;;
2024/01/30 02:43:19;;;;;;;3.9;2.1;;;;;;;1.94;78.30176;951.1323;;;;
2024/01/30 02:45:45;;;;;;;2.6;1.9;;;;;;;1.98;78.18359;951.1213;;;;
2024/01/30 02:48:10;;;;;;;2.5;1.7;;;;;;;1.85;78.28418;951.0826;;;;
2024/01/30 02:50:35;;;;;;;2.9;1.8;;;;;;;1.87;78.23242;951.0594;;;;
2024/01/30 02:53:00;;;;;;;3.3;2.2;;;;;;;1.97;77.63574;951.0683;;;;
2024/01/30 02:55:25;;;;;;;3.9;2.3;;;;;;;1.9;77.3877;951.035;;;;
2024/01/30 02:57:50;;;;;;;2.8;2.2;;;;;;;1.95;77.30762;951.0397;;;;
2024/01/30 03:00:15;;;;;;;3.6;2.2;;;;;;;1.97;77.2998;951.0705;;;;
2024/01/30 03:02:41;;;;;;;3.5;2.2;;;;;;;1.95;77.19434;950.9897;;;;
2024/01/30 03:05:06;;;;;;;4.3;2.2;;;;;;;1.9;77.39844;951.0324;;;;
2024/01/30 03:07:31;;;;;;;4.3;2;;;;;;;2.05;77.11328;950.9548;;;;
2024/01/30 03:09:56;;;;;;;4.2;2.3;;;;;;;1.96;77.46484;951.0013;;;;
2024/01/30 03:12:21;;;;;;;4.6;2.1;;;;;;;1.97;77.36719;950.9363;;;;
2024/01/30 03:14:46;;;;;;;3;2;;;;;;;1.93;77.62695;950.8778;;;;
2024/01/30 03:17:11;;;;;;;3.4;2.4;;;;;;;1.96;77.72168;950.8222;;;;
2024/01/30 03:19:36;;;;;;;4.1;2.3;;;;;;;2.02;77.52051;950.8898;;;;
2024/01/30 03:22:02;;;;;;;4.8;2.9;;;;;;;1.93;77.59375;951.0051;;;;
2024/01/30 03:24:27;;;;;;;4;2.6;;;;;;;1.88;77.86328;950.9344;;;;
2024/01/30 03:26:52;;;;;;;3.7;2.6;;;;;;;1.89;78.18066;950.8731;;;;
2024/01/30 03:29:17;;;;;;;3.3;2.7;;;;;;;1.82;78.23438;950.9256;;;;
2024/01/30 03:31:42;;;;;;;4.2;2.3;;;;;;;1.8;78.46582;950.9165;;;;
2024/01/30 03:34:07;;;;;;;4;2.2;;;;;;;1.94;78.18848;950.9938;;;;
2024/01/30 03:36:34;;;;;;;3.5;2.2;;;;;;;1.82;78.46875;950.9444;;;;
2024/01/30 03:38:57;;;;;;;2.7;2.1;;;;;;;1.83;78.28027;950.9667;;;;
2024/01/30 03:41:23;;;;;;;3.8;2.1;;;;;;;1.77;78.63965;950.9217;;;;
2024/01/30 03:43:48;;;;;;;3.7;2.1;;;;;;;1.72;78.88672;950.837;;;;
2024/01/30 03:46:13;;;;;;;2.3;1.9;;;;;;;1.68;79.18164;950.9149;;;;
2024/01/30 03:48:39;;;;;;;2.7;1.7;;;;;;;1.81;78.95996;950.9222;;;;
2024/01/30 03:51:03;;;;;;;2.9;1.7;;;;;;;1.9;78.5293;950.8006;;;;
2024/01/30 03:53:28;;;;;;;2.1;1.8;;;;;;;1.85;78.63086;950.9428;;;;
2024/01/30 03:55:53;;;;;;;2.4;1.7;;;;;;;1.73;78.91113;950.8206;;;;
2024/01/30 03:58:18;;;;;;;2.1;1.6;;;;;;;1.64;78.82715;950.8695;;;;
2024/01/30 04:02:28;;;;;;;2.4;1.4;;;;;;;1.67;78.48535;950.8667;;;;
2024/01/30 04:04:54;;;;;;;3.4;2.1;;;;;;;1.68;78.38672;950.9045;;;;
2024/01/30 04:07:18;;;;;;;2.4;1.7;;;;;;;1.68;78.30957;950.9063;;;;
2024/01/30 04:09:43;;;;;;;2.7;2;;;;;;;1.7;78.05566;950.9136;;;;
2024/01/30 04:12:08;;;;;;;3.3;1.7;;;;;;;1.69;78.22168;950.8987;;;;
2024/01/30 04:14:33;;;;;;;2.1;1.6;;;;;;;1.77;78.34863;950.9331;;;;
2024/01/30 04:16:59;;;;;;;2.1;1.7;;;;;;;1.74;78.29883;950.9531;;;;
2024/01/30 04:19:23;;;;;;;3.1;1.7;;;;;;;1.85;77.91504;950.8845;;;;
2024/01/30 04:21:49;;;;;;;2.2;1.7;;;;;;;1.89;77.68652;950.8901;;;;
2024/01/30 04:24:17;;;;;;;2.6;1.8;;;;;;;1.91;77.49023;950.8979;;;;
2024/01/30 04:26:39;;;;;;;2.4;1.7;;;;;;;1.84;77.89063;950.9397;;;;
2024/01/30 04:29:04;;;;;;;3.1;1.8;;;;;;;1.82;77.98828;950.9052;;;;
2024/01/30 04:31:29;;;;;;;3.3;2.3;;;;;;;1.71;78.16797;950.928;;;;
2024/01/30 04:33:54;;;;;;;2;1.7;;;;;;;1.75;77.91895;950.8915;;;;
2024/01/30 04:36:20;;;;;;;2.8;1.6;;;;;;;1.72;78.16016;950.9171;;;;
2024/01/30 04:38:45;;;;;;;2.2;1.4;;;;;;;1.69;78.05371;950.8806;;;;
2024/01/30 04:41:10;;;;;;;1.6;1.4;;;;;;;1.6;78.10254;950.855;;;;
2024/01/30 04:43:35;;;;;;;1.2;1.1;;;;;;;1.55;78.04785;950.8494;;;;
2024/01/30 04:46:00;;;;;;;1.6;1.3;;;;;;;1.63;77.76465;950.834;;;;
2024/01/30 04:48:25;;;;;;;2.7;1.9;;;;;;;1.58;78.20215;950.873;;;;
2024/01/30 04:50:50;;;;;;;4.2;2.4;;;;;;;1.7;77.79688;950.9102;;;;
2024/01/30 04:53:15;;;;;;;3.7;2.4;;;;;;;1.73;77.82617;950.8722;;;;
2024/01/30 04:55:40;;;;;;;2.7;2.2;;;;;;;1.84;77.21973;950.8973;;;;
2024/01/30 04:58:05;;;;;;;3.2;2.3;;;;;;;1.86;77.14551;950.9152;;;;
2024/01/30 05:00:30;;;;;;;2.8;2.2;;;;;;;1.83;77.04004;950.8571;;;;
2024/01/30 05:02:56;;;;;;;2.9;1.8;;;;;;;1.78;77.30859;950.8398;;;;
2024/01/30 05:05:21;;;;;;;3.4;1.9;;;;;;;1.74;77.43652;950.9325;;;;
2024/01/30 05:07:46;;;;;;;1.7;1.5;;;;;;;1.72;77.63379;950.8918;;;;
2024/01/30 05:10:11;;;;;;;2.1;1.5;;;;;;;1.67;77.74902;950.9732;;;;
2024/01/30 05:12:36;;;;;;;1.2;1.1;;;;;;;1.67;77.59082;951.0316;;;;
2024/01/30 05:15:01;;;;;;;1.9;1.1;;;;;;;1.58;77.66504;951.066;;;;
2024/01/30 05:17:27;;;;;;;1.9;1.4;;;;;;;1.59;77.66699;951.0444;;;;
2024/01/30 05:19:52;;;;;;;2.6;1.6;;;;;;;1.74;77.46973;951.0697;;;;
2024/01/30 05:22:18;;;;;;;2.7;1.9;;;;;;;1.75;77.53809;951.0737;;;;
2024/01/30 05:24:42;;;;;;;2.3;2.1;;;;;;;1.77;77.49902;951.1008;;;;
2024/01/30 05:27:07;;;;;;;3.2;2.5;;;;;;;1.74;77.59277;951.0644;;;;
2024/01/30 05:29:32;;;;;;;4.9;2.8;;;;;;;1.64;77.80957;951.0762;;;;
2024/01/30 05:31:57;;;;;;;4;2.3;;;;;;;1.66;77.45508;951.108;;;;
2024/01/30 05:34:22;;;;;;;3.5;2.5;;;;;;;1.62;77.60449;951.0187;;;;
2024/01/30 05:36:47;;;;;;;3.4;2.4;;;;;;;1.62;77.55957;951.1223;;;;
2024/01/30 05:39:13;;;;;;;3.7;2.2;;;;;;;1.67;77.64648;951.1306;;;;
2024/01/30 05:41:37;;;;;;;3.9;2.3;;;;;;;1.72;77.70117;951.1064;;;;
2024/01/30 05:44:05;;;;;;;2.7;2.3;;;;;;;1.74;77.97266;951.0744;;;;
2024/01/30 05:46:30;;;;;;;4.3;2.4;;;;;;;1.72;77.84668;951.1294;;;;
2024/01/30 05:48:56;;;;;;;3.6;2.4;;;;;;;1.64;78.04395;951.0912;;;;
2024/01/30 05:51:20;;;;;;;3.3;2.5;;;;;;;1.61;78.2627;951.1119;;;;
2024/01/30 05:53:46;;;;;;;3.1;2.5;;;;;;;1.61;78.36328;951.1685;;;;
2024/01/30 05:56:11;;;;;;;4.3;2.6;;;;;;;1.69;78.03223;951.1777;;;;
2024/01/30 05:58:37;;;;;;;5.8;3.5;;;;;;;1.62;78.26465;951.1006;;;;
2024/01/30 06:01:01;;;;;;;6.4;3.7;;;;;;;1.59;78.36035;951.2285;;;;
2024/01/30 06:03:26;;;;;;;7.3;4.4;;;;;;;1.67;78.23926;951.2178;;;;
2024/01/30 06:05:51;;;;;;;8.4;5.1;;;;;;;1.72;78.03711;951.1891;;;;
2024/01/30 06:08:16;;;;;;;7.2;4.7;;;;;;;1.58;78.70313;951.1505;;;;
2024/01/30 06:10:42;;;;;;;5.8;3.9;;;;;;;1.59;78.75195;951.1647;;;;
2024/01/30 06:13:06;;;;;;;7.1;4.7;;;;;;;1.57;78.86914;951.176;;;;
2024/01/30 06:15:32;;;;;;;10.1;5.9;;;;;;;1.5;79.22461;951.1683;;;;
2024/01/30 06:17:57;;;;;;;11.6;6.4;;;;;;;1.54;79.13281;951.1856;;;;
2024/01/30 06:20:22;;;;;;;11.7;6.6;;;;;;;1.59;78.97559;951.218;;;;
2024/01/30 06:22:47;;;;;;;11.6;7.7;;;;;;;1.55;78.61816;951.1838;;;;
2024/01/30 06:25:12;;;;;;;11.9;8.3;;;;;;;1.57;78.45605;951.2167;;;;
2024/01/30 06:27:37;;;;;;;11.2;8;;;;;;;1.49;78.75488;951.2712;;;;
2024/01/30 06:30:03;;;;;;;9;5.9;;;;;;;1.43;78.98926;951.2776;;;;
2024/01/30 06:32:28;;;;;;;5.8;4.4;;;;;;;1.5;78.75684;951.2759;;;;
2024/01/30 06:34:52;;;;;;;5.2;3.8;;;;;;;1.55;78.58691;951.3401;;;;
2024/01/30 06:37:17;;;;;;;6.1;4.1;;;;;;;1.57;78.5791;951.3361;;;;
2024/01/30 06:39:42;;;;;;;6;4.5;;;;;;;1.6;78.37305;951.2799;;;;
2024/01/30 06:42:07;;;;;;;7.7;5.2;;;;;;;1.65;78.19141;951.34;;;;
2024/01/30 06:44:32;;;;;;;8.4;5.9;;;;;;;1.75;77.81934;951.392;;;;
2024/01/30 06:46:58;;;;;;;8.8;6;;;;;;;1.75;77.59473;951.3797;;;;
2024/01/30 06:49:23;;;;;;;6.7;5.3;;;;;;;1.62;78.25293;951.3373;;;;
2024/01/30 06:51:48;;;;;;;6.8;4.9;;;;;;;1.57;78.27637;951.4814;;;;
2024/01/30 06:54:13;;;;;;;5.8;4.4;;;;;;;1.67;78.17188;951.5105;;;;
2024/01/30 06:56:38;;;;;;;5.3;4.1;;;;;;;1.62;77.90625;951.4752;;;;
2024/01/30 06:59:03;;;;;;;5.4;4;;;;;;;1.64;77.70898;951.3855;;;;
2024/01/30 07:01:28;;;;;;;6.2;3.9;;;;;;;1.61;78.15234;951.4702;;;;
2024/01/30 07:03:54;;;;;;;4.9;4.1;;;;;;;1.61;78.20508;951.4752;;;;
2024/01/30 07:06:19;;;;;;;9.3;5.8;;;;;;;1.63;78.25293;951.5519;;;;
2024/01/30 07:08:44;;;;;;;84.5;46.6;;;;;;;1.65;78.38086;951.5531;;;;
2024/01/30 07:11:09;;;;;;;67.2;39.2;;;;;;;1.76;78.06543;951.4416;;;;
2024/01/30 07:13:34;;;;;;;17.3;10.9;;;;;;;1.84;77.54492;951.4731;;;;
2024/01/30 07:15:59;;;;;;;9.4;6.3;;;;;;;1.78;77.51172;951.4872;;;;
2024/01/30 07:18:24;;;;;;;9;6;;;;;;;1.8;77.60449;951.4526;;;;
2024/01/30 07:20:50;;;;;;;8.5;6;;;;;;;1.9;77.5332;951.4989;;;;
2024/01/30 07:23:16;;;;;;;12.3;6.4;;;;;;;1.87;77.69434;951.4905;;;;
2024/01/30 07:25:41;;;;;;;9.6;5.8;;;;;;;1.81;77.99707;951.5585;;;;
2024/01/30 07:28:05;;;;;;;10.3;5.5;;;;;;;1.99;77.8291;951.4933;;;;
2024/01/30 07:30:30;;;;;;;8.6;5.4;;;;;;;2.41;76.68457;951.5748;;;;
2024/01/30 07:32:55;;;;;;;8.4;5.5;;;;;;;3.02;74.21484;951.4669;;;;
2024/01/30 07:35:20;;;;;;;9.5;6.2;;;;;;;3.58;71.94238;951.4957;;;;
2024/01/30 07:37:46;;;;;;;12.2;9;;;;;;;4.37;69.19434;951.4197;;;;
2024/01/30 07:40:11;;;;;;;10;7.7;;;;;;;4.84;67.34375;951.3887;;;;
2024/01/30 07:42:36;;;;;;;9.5;6.8;;;;;;;5.11;65.66113;951.4139;;;;
2024/01/30 07:45:01;;;;;;;7.8;5.4;;;;;;;5.49;65.23438;951.4313;;;;
2024/01/30 07:47:26;;;;;;;7;5;;;;;;;5.84;63.08691;951.4255;;;;
2024/01/30 07:49:51;;;;;;;5.6;3.8;;;;;;;6.14;61.58301;951.3715;;;;
2024/01/30 07:52:16;;;;;;;5.9;3.4;;;;;;;6.54;60.90332;951.411;;;;
2024/01/30 07:54:41;;;;;;;4;3.2;;;;;;;6.77;60.65332;951.3554;;;;
2024/01/30 07:57:07;;;;;;;6.5;3;;;;;;;7.14;59.13184;951.3578;;;;
2024/01/30 07:59:32;;;;;;;6.3;4.9;;;;;;;7.43;57.65332;951.2642;;;;
2024/01/30 08:01:57;;;;;;;6.7;4.8;;;;;;;7.61;57.01855;951.3217;;;;
2024/01/30 08:04:22;;;;;;;82.9;38.5;;;;;;;7.89;56.35352;951.3114;;;;
2024/01/30 08:06:47;;;;;;;43.3;21.8;;;;;;;8.2;55.84863;951.32;;;;
2024/01/30 08:09:12;;;;;;;8;5.6;;;;;;;8.24;54.57031;951.3345;;;;
2024/01/30 08:11:37;;;;;;;9.6;6;;;;;;;8.45;54.35938;951.2172;;;;
2024/01/30 08:14:02;;;;;;;8.2;5.2;;;;;;;8.83;53.63281;951.3262;;;;
2024/01/30 08:16:27;;;;;;;7.1;5;;;;;;;8.96;54.11426;951.3477;;;;
2024/01/30 08:18:55;;;;;;;9.1;5.3;;;;;;;9.11;53.76953;951.3121;;;;
2024/01/30 08:21:18;;;;;;;8.7;5;;;;;;;9.41;52.86328;951.2434;;;;
2024/01/30 08:23:43;;;;;;;6.1;4.4;;;;;;;9.81;52.5459;951.248;;;;
2024/01/30 08:26:08;;;;;;;5.4;3.9;;;;;;;10.05;51.76563;951.2224;;;;
2024/01/30 08:28:33;;;;;;;4.1;3.3;;;;;;;10.19;50.24316;951.2944;;;;
2024/01/30 08:30:58;;;;;;;6;3.4;;;;;;;10.25;50.09082;951.257;;;;
2024/01/30 08:33:23;;;;;;;4.5;3.2;;;;;;;10.59;49.2041;951.2104;;;;
2024/01/30 08:35:48;;;;;;;5.1;3;;;;;;;10.84;49.32422;951.166;;;;
2024/01/30 08:38:13;;;;;;;4.4;3;;;;;;;11.08;48.57422;951.1171;;;;
2024/01/30 08:40:39;;;;;;;3.5;2.7;;;;;;;11.1;47.92383;951.1495;;;;
2024/01/30 08:43:04;;;;;;;5.2;3;;;;;;;11.23;46.28125;951.0603;;;;
2024/01/30 08:45:30;;;;;;;4.8;2.7;;;;;;;11.3;46.73438;951.1181;;;;
2024/01/30 08:47:54;;;;;;;4.4;2.7;;;;;;;11.58;46.46777;951.1066;;;;
2024/01/30 08:50:20;;;;;;;6.5;2.5;;;;;;;11.82;45.57715;951.0859;;;;
2024/01/30 08:52:44;;;;;;;6.8;2.5;;;;;;;11.96;45.20215;951.0868;;;;
2024/01/30 08:55:10;;;;;;;5.2;2.7;;;;;;;12.32;44.3457;951.0275;;;;
2024/01/30 08:57:35;;;;;;;5.8;2.6;;;;;;;12.33;43.53223;951.0259;;;;
2024/01/30 09:00:00;;;;;;;5.5;2.6;;;;;;;12.53;43.60938;950.9693;;;;
2024/01/30 09:02:25;;;;;;;4.5;2.5;;;;;;;12.63;43.6084;951.007;;;;
2024/01/30 09:04:51;;;;;;;3.9;2.8;;;;;;;12.7;42.19238;950.9302;;;;
2024/01/30 09:07:16;;;;;;;8.7;3.6;;;;;;;13.07;41.57422;950.9249;;;;
2024/01/30 09:09:41;;;;;;;7.3;4.1;;;;;;;13.42;40.78027;950.9662;;;;
2024/01/30 09:12:09;;;;;;;8.1;3.7;;;;;;;13.59;41.43945;950.9228;;;;
2024/01/30 09:14:31;;;;;;;4.8;2.7;;;;;;;13.63;40.80957;950.9423;;;;
2024/01/30 09:16:56;;;;;;;10;3.2;;;;;;;13.74;40.32617;950.9475;;;;
2024/01/30 09:19:21;;;;;;;8.4;3.1;;;;;;;14.06;40.25195;950.9662;;;;
2024/01/30 09:21:46;;;;;;;20.4;4.2;;;;;;;14.31;40.34473;950.8817;;;;
2024/01/30 09:24:11;;;;;;;12.1;5.1;;;;;;;14.56;40.45996;950.9581;;;;
2024/01/30 09:26:37;;;;;;;8.7;3.6;;;;;;;14.64;40.43262;950.9651;;;;
2024/01/30 09:29:01;;;;;;;12.6;3.6;;;;;;;14.99;40.18848;950.9357;;;;
2024/01/30 09:31:27;;;;;;;9.5;3;;;;;;;15.02;39.45313;950.9517;;;;
2024/01/30 09:33:53;;;;;;;5.6;2.2;;;;;;;15.22;38.21289;950.9656;;;;
2024/01/30 09:36:19;;;;;;;5.1;2;;;;;;;15.34;37.37012;950.9174;;;;
2024/01/30 09:38:42;;;;;;;6.8;2.3;;;;;;;15.27;38.40234;950.9101;;;;
2024/01/30 09:41:07;;;;;;;5.4;2.6;;;;;;;15.24;39.71582;950.9459;;;;
2024/01/30 09:43:32;;;;;;;7.9;2.5;;;;;;;15.21;39.38965;950.962;;;;
2024/01/30 09:45:57;;;;;;;14.6;3.2;;;;;;;15.11;39.72656;950.8645;;;;
2024/01/30 09:48:23;;;;;;;2.9;1.9;;;;;;;15.16;39.47656;950.9398;;;;
2024/01/30 09:50:47;;;;;;;3.4;2.2;;;;;;;15.21;38.65039;950.9556;;;;
2024/01/30 09:53:12;;;;;;;11.2;2.7;;;;;;;15.44;39.11035;950.9612;;;;
2024/01/30 09:55:38;;;;;;;7.3;2.2;;;;;;;15.73;38.16504;950.9135;;;;
2024/01/30 09:58:03;;;;;;;6.3;2.3;;;;;;;15.84;38.55664;950.894;;;;
2024/01/30 10:00:29;;;;;;;10.7;2.9;;;;;;;16.05;38.28516;950.8512;;;;
2024/01/30 10:02:53;;;;;;;15.1;3.1;;;;;;;16.23;38.21973;950.775;;;;
2024/01/30 10:05:18;;;;;;;5.4;1.5;;;;;;;16.36;36.85547;950.7438;;;;
2024/01/30 10:07:44;;;;;;;7.2;2.2;;;;;;;16.63;37.16699;950.6899;;;;
2024/01/30 10:10:08;;;;;;;7.6;2.5;;;;;;;16.72;37.09375;950.7117;;;;
2024/01/30 10:12:34;;;;;;;4.5;1.9;;;;;;;16.63;36.06641;950.6465;;;;
2024/01/30 10:14:59;;;;;;;3.8;1.5;;;;;;;16.38;36.34668;950.5952;;;;
2024/01/30 10:17:24;;;;;;;7.1;2.3;;;;;;;16.08;38.34668;950.563;;;;
2024/01/30 10:19:49;;;;;;;6.5;1.9;;;;;;;16.23;36.56641;950.5524;;;;
2024/01/30 10:22:14;;;;;;;5.3;2;;;;;;;16.79;36.68262;950.5559;;;;
2024/01/30 10:24:39;;;;;;;4;1.6;;;;;;;17.28;36.24805;950.5646;;;;
2024/01/30 10:27:04;;;;;;;5.9;1.5;;;;;;;17.6;34.83496;950.5449;;;;
2024/01/30 10:29:29;;;;;;;4.4;1.5;;;;;;;18.09;34.52539;950.541;;;;
2024/01/30 10:31:54;;;;;;;2.4;1.1;;;;;;;18.19;33.68555;950.5377;;;;
2024/01/30 10:34:19;;;;;;;3.8;1.7;;;;;;;18.51;34.16309;950.5429;;;;
2024/01/30 10:36:45;;;;;;;2.5;1.5;;;;;;;18.95;32.21875;950.4587;;;;
2024/01/30 10:39:10;;;;;;;3.5;1.4;;;;;;;19.24;32.2627;950.4501;;;;
2024/01/30 10:41:35;;;;;;;2.6;1.1;;;;;;;19.42;31.27441;950.3685;;;;
2024/01/30 10:44:00;;;;;;;4.4;0.9;;;;;;;19.47;31.27734;950.3831;;;;
2024/01/30 10:46:25;;;;;;;3.4;0.9;;;;;;;19.52;30.82715;950.3173;;;;
2024/01/30 10:48:50;;;;;;;1.8;1.1;;;;;;;19.43;31.00684;950.3276;;;;
2024/01/30 10:51:15;;;;;;;1.4;1;;;;;;;19.71;30.55957;950.3031;;;;
2024/01/30 10:53:41;;;;;;;2.7;0.9;;;;;;;19.51;30.13867;950.2673;;;;
2024/01/30 10:56:06;;;;;;;1.3;0.6;;;;;;;19.28;31.01953;950.2239;;;;
2024/01/30 10:58:31;;;;;;;2;1.2;;;;;;;19.23;30.47949;950.2031;;;;
2024/01/30 11:00:56;;;;;;;3.9;1.1;;;;;;;18.96;31.48633;950.1423;;;;
2024/01/30 11:03:23;;;;;;;3.5;1;;;;;;;18.99;31.18555;950.0889;;;;
2024/01/30 11:05:47;;;;;;;3.6;0.9;;;;;;;19.36;29.66211;950.0385;;;;
2024/01/30 11:08:12;;;;;;;1.6;0.6;;;;;;;19.55;29.68652;950.0217;;;;
2024/01/30 11:10:37;;;;;;;1.4;0.9;;;;;;;19.41;29.7002;949.9719;;;;
2024/01/30 11:13:02;;;;;;;1.1;0.6;;;;;;;19.16;31.52344;949.9156;;;;
2024/01/30 11:15:28;;;;;;;2.8;0.7;;;;;;;18.97;30.47461;949.938;;;;
2024/01/30 11:17:53;;;;;;;3.6;1;;;;;;;18.95;31.81152;949.9559;;;;
2024/01/30 11:20:19;;;;;;;2.6;1;;;;;;;18.64;31.9043;949.9219;;;;
2024/01/30 11:22:43;;;;;;;3.2;0.9;;;;;;;18.42;32.0752;949.851;;;;
2024/01/30 11:25:08;;;;;;;2.2;0.7;;;;;;;18.42;29.79688;949.8469;;;;
2024/01/30 11:27:33;;;;;;;1.6;0.7;;;;;;;18.16;30.25586;949.8194;;;;
2024/01/30 11:29:58;;;;;;;0.9;0.7;;;;;;;18.37;30.58398;949.7701;;;;
2024/01/30 11:32:24;;;;;;;2.6;0.8;;;;;;;18.37;30.85156;949.7258;;;;
2024/01/30 11:34:49;;;;;;;2.8;0.7;;;;;;;18.33;30.77832;949.6895;;;;
2024/01/30 11:37:14;;;;;;;2.2;0.8;;;;;;;18.13;30.27637;949.6323;;;;
2024/01/30 11:39:41;;;;;;;0.6;0.6;;;;;;;17.86;29.85156;949.6516;;;;
2024/01/30 11:42:04;;;;;;;2.5;0.9;;;;;;;17.71;30.63086;949.6223;;;;
2024/01/30 11:44:29;;;;;;;2.3;0.6;;;;;;;17.74;32.01367;949.5644;;;;
2024/01/30 11:46:54;;;;;;;1.3;0.7;;;;;;;17.34;33.06348;949.5294;;;;
2024/01/30 11:49:19;;;;;;;2.4;0.9;;;;;;;17.13;31.35547;949.5069;;;;
2024/01/30 11:51:45;;;;;;;1.4;0.9;;;;;;;17.12;31.87695;949.4601;;;;
2024/01/30 11:54:10;;;;;;;1.3;1.1;;;;;;;17.28;30.14844;949.4327;;;;
2024/01/30 11:56:35;;;;;;;1.2;0.8;;;;;;;16.98;31.1709;949.3943;;;;
2024/01/30 11:59:00;;;;;;;2.4;0.9;;;;;;;16.94;32.5127;949.3412;;;;
2024/01/30 12:01:25;;;;;;;3.9;0.9;;;;;;;16.8;33.27734;949.3661;;;;
2024/01/30 12:03:50;;;;;;;1.2;0.8;;;;;;;16.58;33.85156;949.3552;;;;
2024/01/30 12:06:15;;;;;;;1.8;0.9;;;;;;;16.44;33.07715;949.3513;;;;
2024/01/30 12:08:40;;;;;;;4.3;1;;;;;;;16.37;32.23828;949.3185;;;;
2024/01/30 12:11:05;;;;;;;1.1;0.9;;;;;;;16.28;32.19727;949.3414;;;;
2024/01/30 12:13:30;;;;;;;1.7;0.8;;;;;;;16.14;33.18164;949.3105;;;;
2024/01/30 12:15:55;;;;;;;2.2;0.8;;;;;;;16.07;34.2168;949.2113;;;;
2024/01/30 12:18:20;;;;;;;2.5;0.7;;;;;;;16.05;34.03027;949.2698;;;;
2024/01/30 12:20:45;;;;;;;1.6;0.9;;;;;;;16.02;34.33984;949.2356;;;;
2024/01/30 12:23:10;;;;;;;0.7;0.7;;;;;;;15.96;35.13281;949.2095;;;;
2024/01/30 12:25:35;;;;;;;5.2;1.9;;;;;;;15.48;37.28906;949.243;;;;
2024/01/30 12:28:01;;;;;;;3.1;1.8;;;;;;;15.33;38.47656;949.2341;;;;
2024/01/30 12:30:26;;;;;;;3.7;1.7;;;;;;;15.38;38.36523;949.2;;;;
2024/01/30 12:32:51;;;;;;;1.9;1.5;;;;;;;15.28;38.3457;949.1406;;;;
2024/01/30 12:35:16;;;;;;;3.5;1.3;;;;;;;15.15;38.61035;949.1119;;;;
2024/01/30 12:37:41;;;;;;;1.2;1.1;;;;;;;15.14;36.47461;949.2393;;;;
2024/01/30 12:40:08;;;;;;;1.3;1.2;;;;;;;15.19;36.90625;949.1314;;;;
2024/01/30 12:42:31;;;;;;;2.1;1.4;;;;;;;15.19;36.37598;949.1475;;;;
2024/01/30 12:44:57;;;;;;;1.7;1;;;;;;;15.06;37.5293;949.188;;;;
2024/01/30 12:47:22;;;;;;;1.3;0.7;;;;;;;15.02;37.39941;949.1941;;;;
2024/01/30 12:49:47;;;;;;;0.8;0.6;;;;;;;14.96;35.99902;949.1547;;;;
2024/01/30 12:52:12;;;;;;;1;0.7;;;;;;;14.82;37.85449;949.1267;;;;
2024/01/30 12:54:37;;;;;;;1.3;0.9;;;;;;;14.79;36.14551;949.1509;;;;
2024/01/30 12:57:02;;;;;;;1.3;0.9;;;;;;;14.6;37.13379;949.0757;;;;
2024/01/30 12:59:27;;;;;;;1.6;1.4;;;;;;;14.46;37.85742;949.0884;;;;
2024/01/30 13:01:52;;;;;;;2.4;1.4;;;;;;;14.31;37.86914;949.1021;;;;
2024/01/30 13:04:18;;;;;;;1.2;1.1;;;;;;;14.25;38.00098;949.0156;;;;
2024/01/30 13:06:43;;;;;;;1.6;1.3;;;;;;;14.26;38.12891;949.1255;;;;
2024/01/30 13:09:08;;;;;;;1.8;1.3;;;;;;;14.15;38.1543;949.046;;;;
2024/01/30 13:11:34;;;;;;;2.4;1.4;;;;;;;14.14;38.50977;949.1011;;;;
2024/01/30 13:13:58;;;;;;;2.2;1.4;;;;;;;14.23;37.64258;949.0698;;;;
2024/01/30 13:16:23;;;;;;;2;1.2;;;;;;;14.12;37.16113;949.0672;;;;
2024/01/30 13:18:48;;;;;;;2.3;1.4;;;;;;;13.97;36.58398;949.0577;;;;
2024/01/30 13:21:13;;;;;;;1.7;1.5;;;;;;;14.1;36.6416;949.1118;;;;
2024/01/30 13:23:38;;;;;;;1.6;1.2;;;;;;;14.24;35.65137;949.0988;;;;
2024/01/30 13:26:04;;;;;;;1.8;1.4;;;;;;;14.26;36.03223;949.0845;;;;
2024/01/30 13:28:28;;;;;;;2;1.2;;;;;;;14.28;36.49512;949.0753;;;;
2024/01/30 13:30:54;;;;;;;3.1;1.7;;;;;;;14.13;37.27734;949.0627;;;;
2024/01/30 13:33:19;;;;;;;3.6;1.7;;;;;;;13.91;37.66113;949.0722;;;;
2024/01/30 13:35:44;;;;;;;3.3;1.7;;;;;;;13.94;38.53809;949.1278;;;;
2024/01/30 13:38:09;;;;;;;2.6;1.4;;;;;;;13.93;38.23828;949.0764;;;;
2024/01/30 13:40:34;;;;;;;2.1;1.8;;;;;;;13.94;39.1709;949.1286;;;;
2024/01/30 13:42:59;;;;;;;1.7;1.3;;;;;;;13.91;38.54688;949.1586;;;;
2024/01/30 13:45:24;;;;;;;2.4;1.6;;;;;;;13.75;38.83203;949.1664;;;;
2024/01/30 13:47:50;;;;;;;1.7;1.3;;;;;;;13.69;38.35547;949.1959;;;;
2024/01/30 13:50:16;;;;;;;2.4;1.5;;;;;;;13.57;38.41309;949.2107;;;;
2024/01/30 13:52:40;;;;;;;2.1;1.2;;;;;;;13.48;38.41699;949.1692;;;;
2024/01/30 13:55:05;;;;;;;2.3;1.3;;;;;;;13.42;38.88379;949.1955;;;;
2024/01/30 13:57:33;;;;;;;2.3;1.4;;;;;;;13.42;38.92969;949.238;;;;
2024/01/30 13:59:55;;;;;;;2;1.3;;;;;;;13.32;39.31055;949.1959;;;;
2024/01/30 14:02:20;;;;;;;1.1;1;;;;;;;13.38;39.24707;949.2314;;;;
2024/01/30 14:04:45;;;;;;;1.5;1.2;;;;;;;13.25;39.89063;949.2659;;;;
2024/01/30 14:07:10;;;;;;;1.6;1.1;;;;;;;13.14;40.39746;949.218;;;;
2024/01/30 14:09:35;;;;;;;2.5;1.3;;;;;;;12.99;41.03711;949.2294;;;;
2024/01/30 14:12:00;;;;;;;4;1.3;;;;;;;12.99;41.09473;949.2805;;;;
2024/01/30 14:14:26;;;;;;;2.4;1.4;;;;;;;12.84;41.59766;949.2738;;;;
2024/01/30 14:16:51;;;;;;;1.7;1.3;;;;;;;12.88;41.70508;949.2747;;;;
2024/01/30 14:19:16;;;;;;;2.5;1.7;;;;;;;12.94;41.34277;949.2317;;;;